sensor_id;sensor_type;location;lat;lon;timestamp;P1;durP1;ratioP1;P2;durP2;ratioP2
35977;SDS011;22056;0.000;0.000;2023-04-01T00:01:18;1.25;;;0.50;;
35977;SDS011;22056;0.000;0.000;2023-04-01T00:03:45;2.10;;;0.40;;
35977;SDS011;22056;0.000;0.000;2023-04-01T00:06:12;1.00;;;0.40;;
35977;SDS011;22056;0.000;0.000;2023-04-01T00:08:39;0.93;;;0.40;;
35977;SDS011;22056;0.000;0.000;2023-04-01T00:11:05;0.98;;;0.52;;
35977;SDS011;22056;0.000;0.000;2023-04-01T00:13:32;2.33;;;0.55;;
35977;SDS011;22056;0.000;0.000;2023-04-01T00:15:58;1.80;;;0.43;;
35977;SDS011;22056;0.000;0.000;2023-04-01T00:18:24;2.03;;;0.60;;
35977;SDS011;22056;0.000;0.000;2023-04-01T00:20:51;1.80;;;0.40;;
35977;SDS011;22056;0.000;0.000;2023-04-01T00:23:18;3.28;;;0.50;;
35977;SDS011;22056;0.000;0.000;2023-04-01T00:25:44;1.95;;;0.40;;
35977;SDS011;22056;0.000;0.000;2023-04-01T00:28:13;1.25;;;0.50;;
35977;SDS011;22056;0.000;0.000;2023-04-01T00:30:39;1.23;;;0.40;;
35977;SDS011;22056;0.000;0.000;2023-04-01T00:33:05;2.38;;;0.40;;
35977;SDS011;22056;0.000;0.000;2023-04-01T00:35:32;1.88;;;0.50;;
35977;SDS011;22056;0.000;0.000;2023-04-01T00:37:58;1.02;;;0.30;;
35977;SDS011;22056;0.000;0.000;2023-04-01T00:40:29;2.67;;;0.70;;
35977;SDS011;22056;0.000;0.000;2023-04-01T00:42:56;1.45;;;0.40;;
35977;SDS011;22056;0.000;0.000;2023-04-01T00:45:23;1.70;;;0.50;;
35977;SDS011;22056;0.000;0.000;2023-04-01T00:47:51;0.95;;;0.40;;
35977;SDS011;22056;0.000;0.000;2023-04-01T00:50:18;0.60;;;0.30;;
35977;SDS011;22056;0.000;0.000;2023-04-01T00:52:44;2.53;;;0.35;;
35977;SDS011;22056;0.000;0.000;2023-04-01T00:55:11;0.75;;;0.40;;
35977;SDS011;22056;0.000;0.000;2023-04-01T00:57:40;0.68;;;0.20;;
35977;SDS011;22056;0.000;0.000;2023-04-01T01:00:09;0.77;;;0.40;;
35977;SDS011;22056;0.000;0.000;2023-04-01T01:02:36;1.73;;;0.38;;
35977;SDS011;22056;0.000;0.000;2023-04-01T01:05:02;0.45;;;0.30;;
35977;SDS011;22056;0.000;0.000;2023-04-01T01:10:07;1.75;;;0.43;;
35977;SDS011;22056;0.000;0.000;2023-04-01T01:15:21;1.40;;;0.50;;
35977;SDS011;22056;0.000;0.000;2023-04-01T01:23:06;0.55;;;0.30;;
35977;SDS011;22056;0.000;0.000;2023-04-01T01:31:00;0.80;;;0.30;;
35977;SDS011;22056;0.000;0.000;2023-04-01T01:36:10;0.52;;;0.30;;
35977;SDS011;22056;0.000;0.000;2023-04-01T01:38:39;0.50;;;0.30;;
35977;SDS011;22056;0.000;0.000;2023-04-01T01:41:06;0.90;;;0.45;;
35977;SDS011;22056;0.000;0.000;2023-04-01T01:43:35;0.95;;;0.32;;
35977;SDS011;22056;0.000;0.000;2023-04-01T01:46:04;0.70;;;0.40;;
35977;SDS011;22056;0.000;0.000;2023-04-01T01:48:33;0.95;;;0.30;;
35977;SDS011;22056;0.000;0.000;2023-04-01T01:50:59;0.50;;;0.30;;
35977;SDS011;22056;0.000;0.000;2023-04-01T01:53:26;0.45;;;0.22;;
35977;SDS011;22056;0.000;0.000;2023-04-01T01:55:52;0.40;;;0.30;;
35977;SDS011;22056;0.000;0.000;2023-04-01T02:00:57;0.52;;;0.28;;
35977;SDS011;22056;0.000;0.000;2023-04-01T02:03:26;0.25;;;0.25;;
35977;SDS011;22056;0.000;0.000;2023-04-01T02:05:53;1.42;;;0.30;;
35977;SDS011;22056;0.000;0.000;2023-04-01T02:08:22;0.55;;;0.30;;
35977;SDS011;22056;0.000;0.000;2023-04-01T02:10:55;0.80;;;0.30;;
35977;SDS011;22056;0.000;0.000;2023-04-01T02:13:24;0.60;;;0.30;;
35977;SDS011;22056;0.000;0.000;2023-04-01T02:15:53;0.60;;;0.25;;
35977;SDS011;22056;0.000;0.000;2023-04-01T02:18:22;0.22;;;0.20;;
35977;SDS011;22056;0.000;0.000;2023-04-01T02:20:48;0.60;;;0.20;;
35977;SDS011;22056;0.000;0.000;2023-04-01T02:23:15;1.10;;;0.20;;
35977;SDS011;22056;0.000;0.000;2023-04-01T02:25:41;0.20;;;0.20;;
35977;SDS011;22056;0.000;0.000;2023-04-01T02:28:09;0.90;;;0.30;;
35977;SDS011;22056;0.000;0.000;2023-04-01T02:30:37;0.17;;;0.17;;
35977;SDS011;22056;0.000;0.000;2023-04-01T02:33:05;0.57;;;0.30;;
35977;SDS011;22056;0.000;0.000;2023-04-01T02:35:32;0.40;;;0.30;;
35977;SDS011;22056;0.000;0.000;2023-04-01T02:37:59;0.75;;;0.30;;
35977;SDS011;22056;0.000;0.000;2023-04-01T02:40:26;0.55;;;0.30;;
35977;SDS011;22056;0.000;0.000;2023-04-01T02:42:52;0.17;;;0.17;;
35977;SDS011;22056;0.000;0.000;2023-04-01T02:45:19;0.50;;;0.30;;
35977;SDS011;22056;0.000;0.000;2023-04-01T02:47:45;0.57;;;0.28;;
35977;SDS011;22056;0.000;0.000;2023-04-01T02:50:11;1.52;;;0.30;;
35977;SDS011;22056;0.000;0.000;2023-04-01T02:52:37;0.52;;;0.25;;
35977;SDS011;22056;0.000;0.000;2023-04-01T02:55:03;0.65;;;0.20;;
35977;SDS011;22056;0.000;0.000;2023-04-01T02:57:30;0.25;;;0.25;;
35977;SDS011;22056;0.000;0.000;2023-04-01T02:59:56;0.60;;;0.20;;
35977;SDS011;22056;0.000;0.000;2023-04-01T03:02:22;1.20;;;0.30;;
35977;SDS011;22056;0.000;0.000;2023-04-01T03:04:48;0.90;;;0.30;;
35977;SDS011;22056;0.000;0.000;2023-04-01T03:07:14;0.57;;;0.30;;
35977;SDS011;22056;0.000;0.000;2023-04-01T03:09:41;0.50;;;0.22;;
35977;SDS011;22056;0.000;0.000;2023-04-01T03:12:08;0.40;;;0.30;;
35977;SDS011;22056;0.000;0.000;2023-04-01T03:14:34;0.25;;;0.20;;
35977;SDS011;22056;0.000;0.000;2023-04-01T03:17:00;0.45;;;0.30;;
35977;SDS011;22056;0.000;0.000;2023-04-01T03:19:26;0.40;;;0.20;;
35977;SDS011;22056;0.000;0.000;2023-04-01T03:21:53;0.43;;;0.28;;
35977;SDS011;22056;0.000;0.000;2023-04-01T03:24:19;0.63;;;0.30;;
35977;SDS011;22056;0.000;0.000;2023-04-01T03:26:46;0.22;;;0.20;;
35977;SDS011;22056;0.000;0.000;2023-04-01T03:29:12;0.25;;;0.20;;
35977;SDS011;22056;0.000;0.000;2023-04-01T03:31:40;0.20;;;0.20;;
35977;SDS011;22056;0.000;0.000;2023-04-01T03:34:06;0.28;;;0.20;;
35977;SDS011;22056;0.000;0.000;2023-04-01T03:36:32;0.65;;;0.30;;
35977;SDS011;22056;0.000;0.000;2023-04-01T03:38:58;1.00;;;0.22;;
35977;SDS011;22056;0.000;0.000;2023-04-01T03:41:25;0.43;;;0.25;;
35977;SDS011;22056;0.000;0.000;2023-04-01T03:43:51;0.20;;;0.20;;
35977;SDS011;22056;0.000;0.000;2023-04-01T03:46:19;0.30;;;0.20;;
35977;SDS011;22056;0.000;0.000;2023-04-01T03:48:45;0.30;;;0.20;;
35977;SDS011;22056;0.000;0.000;2023-04-01T03:51:11;0.55;;;0.30;;
35977;SDS011;22056;0.000;0.000;2023-04-01T03:53:37;0.40;;;0.20;;
35977;SDS011;22056;0.000;0.000;2023-04-01T03:56:04;0.30;;;0.17;;
35977;SDS011;22056;0.000;0.000;2023-04-01T03:58:31;0.30;;;0.20;;
35977;SDS011;22056;0.000;0.000;2023-04-01T04:00:57;0.40;;;0.20;;
35977;SDS011;22056;0.000;0.000;2023-04-01T04:03:23;0.43;;;0.20;;
35977;SDS011;22056;0.000;0.000;2023-04-01T04:05:49;0.30;;;0.30;;
35977;SDS011;22056;0.000;0.000;2023-04-01T04:08:16;1.08;;;0.30;;
35977;SDS011;22056;0.000;0.000;2023-04-01T04:10:42;0.25;;;0.20;;
35977;SDS011;22056;0.000;0.000;2023-04-01T04:13:09;0.52;;;0.25;;
35977;SDS011;22056;0.000;0.000;2023-04-01T04:15:35;0.63;;;0.20;;
35977;SDS011;22056;0.000;0.000;2023-04-01T04:18:01;0.45;;;0.28;;
35977;SDS011;22056;0.000;0.000;2023-04-01T04:20:27;0.30;;;0.20;;
35977;SDS011;22056;0.000;0.000;2023-04-01T04:22:53;0.65;;;0.20;;
35977;SDS011;22056;0.000;0.000;2023-04-01T04:25:19;0.40;;;0.25;;
35977;SDS011;22056;0.000;0.000;2023-04-01T04:27:46;0.70;;;0.28;;
35977;SDS011;22056;0.000;0.000;2023-04-01T04:30:12;0.35;;;0.20;;
35977;SDS011;22056;0.000;0.000;2023-04-01T04:32:38;0.20;;;0.20;;
35977;SDS011;22056;0.000;0.000;2023-04-01T04:35:05;0.20;;;0.20;;
35977;SDS011;22056;0.000;0.000;2023-04-01T04:37:32;0.40;;;0.30;;
35977;SDS011;22056;0.000;0.000;2023-04-01T04:39:58;0.20;;;0.20;;
35977;SDS011;22056;0.000;0.000;2023-04-01T04:42:24;0.68;;;0.25;;
35977;SDS011;22056;0.000;0.000;2023-04-01T04:44:50;0.20;;;0.20;;
35977;SDS011;22056;0.000;0.000;2023-04-01T04:47:16;0.70;;;0.25;;
35977;SDS011;22056;0.000;0.000;2023-04-01T04:49:42;0.75;;;0.20;;
35977;SDS011;22056;0.000;0.000;2023-04-01T04:52:08;0.20;;;0.17;;
35977;SDS011;22056;0.000;0.000;2023-04-01T04:54:35;0.40;;;0.30;;
35977;SDS011;22056;0.000;0.000;2023-04-01T04:57:01;0.75;;;0.20;;
35977;SDS011;22056;0.000;0.000;2023-04-01T04:59:27;1.17;;;0.20;;
35977;SDS011;22056;0.000;0.000;2023-04-01T05:01:53;0.65;;;0.30;;
35977;SDS011;22056;0.000;0.000;2023-04-01T05:04:19;0.70;;;0.30;;
35977;SDS011;22056;0.000;0.000;2023-04-01T05:06:45;0.35;;;0.30;;
35977;SDS011;22056;0.000;0.000;2023-04-01T05:09:12;0.65;;;0.40;;
35977;SDS011;22056;0.000;0.000;2023-04-01T05:11:38;1.13;;;0.30;;
35977;SDS011;22056;0.000;0.000;2023-04-01T05:14:05;0.45;;;0.30;;
35977;SDS011;22056;0.000;0.000;2023-04-01T05:16:31;0.38;;;0.32;;
35977;SDS011;22056;0.000;0.000;2023-04-01T05:18:57;0.63;;;0.22;;
35977;SDS011;22056;0.000;0.000;2023-04-01T05:21:23;1.05;;;0.40;;
35977;SDS011;22056;0.000;0.000;2023-04-01T05:23:49;0.50;;;0.20;;
35977;SDS011;22056;0.000;0.000;2023-04-01T05:26:15;0.45;;;0.30;;
35977;SDS011;22056;0.000;0.000;2023-04-01T05:28:41;0.65;;;0.25;;
35977;SDS011;22056;0.000;0.000;2023-04-01T05:31:08;0.88;;;0.40;;
35977;SDS011;22056;0.000;0.000;2023-04-01T05:33:34;0.63;;;0.22;;
35977;SDS011;22056;0.000;0.000;2023-04-01T05:36:10;2.08;;;0.40;;
35977;SDS011;22056;0.000;0.000;2023-04-01T05:38:36;0.68;;;0.30;;
35977;SDS011;22056;0.000;0.000;2023-04-01T05:41:02;0.63;;;0.30;;
35977;SDS011;22056;0.000;0.000;2023-04-01T05:43:29;1.02;;;0.38;;
35977;SDS011;22056;0.000;0.000;2023-04-01T05:45:55;0.60;;;0.30;;
35977;SDS011;22056;0.000;0.000;2023-04-01T05:48:21;1.48;;;0.32;;
35977;SDS011;22056;0.000;0.000;2023-04-01T05:50:48;0.90;;;0.30;;
35977;SDS011;22056;0.000;0.000;2023-04-01T05:53:14;0.50;;;0.40;;
35977;SDS011;22056;0.000;0.000;2023-04-01T05:55:40;2.03;;;0.40;;
35977;SDS011;22056;0.000;0.000;2023-04-01T05:58:06;0.63;;;0.20;;
35977;SDS011;22056;0.000;0.000;2023-04-01T06:00:32;0.70;;;0.40;;
35977;SDS011;22056;0.000;0.000;2023-04-01T06:02:59;0.52;;;0.32;;
35977;SDS011;22056;0.000;0.000;2023-04-01T06:05:27;1.20;;;0.30;;
35977;SDS011;22056;0.000;0.000;2023-04-01T06:07:55;0.75;;;0.30;;
35977;SDS011;22056;0.000;0.000;2023-04-01T06:10:24;0.35;;;0.30;;
35977;SDS011;22056;0.000;0.000;2023-04-01T06:16:12;0.73;;;0.30;;
35977;SDS011;22056;0.000;0.000;2023-04-01T06:36:30;0.50;;;0.30;;
35977;SDS011;22056;0.000;0.000;2023-04-01T06:39:13;1.65;;;0.32;;
35977;SDS011;22056;0.000;0.000;2023-04-01T06:46:45;0.63;;;0.30;;
35977;SDS011;22056;0.000;0.000;2023-04-01T06:54:28;1.13;;;0.30;;
35977;SDS011;22056;0.000;0.000;2023-04-01T06:56:58;0.88;;;0.30;;
35977;SDS011;22056;0.000;0.000;2023-04-01T06:59:30;1.05;;;0.50;;
35977;SDS011;22056;0.000;0.000;2023-04-01T07:02:02;0.40;;;0.20;;
35977;SDS011;22056;0.000;0.000;2023-04-01T07:07:00;0.22;;;0.13;;
35977;SDS011;22056;0.000;0.000;2023-04-01T07:09:28;0.80;;;0.30;;
35977;SDS011;22056;0.000;0.000;2023-04-01T07:11:59;0.43;;;0.38;;
35977;SDS011;22056;0.000;0.000;2023-04-01T07:14:30;0.73;;;0.20;;
35977;SDS011;22056;0.000;0.000;2023-04-01T07:17:04;0.93;;;0.40;;
35977;SDS011;22056;0.000;0.000;2023-04-01T07:19:32;0.77;;;0.30;;
35977;SDS011;22056;0.000;0.000;2023-04-01T07:22:43;0.77;;;0.35;;
35977;SDS011;22056;0.000;0.000;2023-04-01T07:24:50;1.05;;;0.32;;
35977;SDS011;22056;0.000;0.000;2023-04-01T07:27:17;0.80;;;0.40;;
35977;SDS011;22056;0.000;0.000;2023-04-01T07:29:43;0.77;;;0.30;;
35977;SDS011;22056;0.000;0.000;2023-04-01T07:39:51;1.25;;;0.30;;
35977;SDS011;22056;0.000;0.000;2023-04-01T07:45:03;0.70;;;0.40;;
35977;SDS011;22056;0.000;0.000;2023-04-01T07:52:49;0.60;;;0.40;;
35977;SDS011;22056;0.000;0.000;2023-04-01T07:55:25;0.93;;;0.38;;
35977;SDS011;22056;0.000;0.000;2023-04-01T07:58:03;0.70;;;0.38;;
35977;SDS011;22056;0.000;0.000;2023-04-01T08:06:06;2.00;;;0.43;;
35977;SDS011;22056;0.000;0.000;2023-04-01T08:13:57;0.90;;;0.30;;
35977;SDS011;22056;0.000;0.000;2023-04-01T08:16:46;1.00;;;0.30;;
35977;SDS011;22056;0.000;0.000;2023-04-01T08:22:02;0.40;;;0.30;;
35977;SDS011;22056;0.000;0.000;2023-04-01T08:24:38;0.70;;;0.40;;
35977;SDS011;22056;0.000;0.000;2023-04-01T08:27:09;0.57;;;0.30;;
35977;SDS011;22056;0.000;0.000;2023-04-01T08:34:34;0.40;;;0.30;;
35977;SDS011;22056;0.000;0.000;2023-04-01T08:37:05;1.20;;;0.40;;
35977;SDS011;22056;0.000;0.000;2023-04-01T08:39:51;0.82;;;0.30;;
35977;SDS011;22056;0.000;0.000;2023-04-01T08:42:31;0.55;;;0.30;;
35977;SDS011;22056;0.000;0.000;2023-04-01T08:47:37;1.15;;;0.40;;
35977;SDS011;22056;0.000;0.000;2023-04-01T08:50:23;1.60;;;0.60;;
35977;SDS011;22056;0.000;0.000;2023-04-01T08:53:07;0.85;;;0.47;;
35977;SDS011;22056;0.000;0.000;2023-04-01T09:00:53;0.98;;;0.50;;
35977;SDS011;22056;0.000;0.000;2023-04-01T09:13:42;1.40;;;0.30;;
35977;SDS011;22056;0.000;0.000;2023-04-01T09:18:49;1.05;;;0.32;;
35977;SDS011;22056;0.000;0.000;2023-04-01T09:29:24;0.57;;;0.30;;
35977;SDS011;22056;0.000;0.000;2023-04-01T09:34:44;2.13;;;0.38;;
35977;SDS011;22056;0.000;0.000;2023-04-01T09:37:34;0.85;;;0.40;;
35977;SDS011;22056;0.000;0.000;2023-04-01T09:45:21;1.38;;;0.40;;
35977;SDS011;22056;0.000;0.000;2023-04-01T09:48:08;0.85;;;0.40;;
35977;SDS011;22056;0.000;0.000;2023-04-01T09:50:38;2.00;;;0.60;;
35977;SDS011;22056;0.000;0.000;2023-04-01T09:53:18;0.50;;;0.30;;
35977;SDS011;22056;0.000;0.000;2023-04-01T09:58:27;1.13;;;0.30;;
35977;SDS011;22056;0.000;0.000;2023-04-01T10:03:46;0.38;;;0.22;;
35977;SDS011;22056;0.000;0.000;2023-04-01T10:06:21;0.68;;;0.30;;
35977;SDS011;22056;0.000;0.000;2023-04-01T10:09:08;0.70;;;0.40;;
35977;SDS011;22056;0.000;0.000;2023-04-01T10:17:54;0.40;;;0.40;;
35977;SDS011;22056;0.000;0.000;2023-04-01T10:25:23;1.40;;;0.50;;
35977;SDS011;22056;0.000;0.000;2023-04-01T10:28:07;1.35;;;0.50;;
35977;SDS011;22056;0.000;0.000;2023-04-01T10:30:49;0.75;;;0.30;;
35977;SDS011;22056;0.000;0.000;2023-04-01T10:33:42;0.90;;;0.40;;
35977;SDS011;22056;0.000;0.000;2023-04-01T11:20:13;0.98;;;0.30;;
35977;SDS011;22056;0.000;0.000;2023-04-01T11:22:48;1.42;;;0.40;;
35977;SDS011;22056;0.000;0.000;2023-04-01T11:25:23;0.80;;;0.38;;
35977;SDS011;22056;0.000;0.000;2023-04-01T11:41:13;0.68;;;0.45;;
35977;SDS011;22056;0.000;0.000;2023-04-01T11:48:38;1.08;;;0.50;;
35977;SDS011;22056;0.000;0.000;2023-04-01T11:56:59;0.38;;;0.30;;
35977;SDS011;22056;0.000;0.000;2023-04-01T11:59:48;1.15;;;0.40;;
35977;SDS011;22056;0.000;0.000;2023-04-01T12:07:27;0.38;;;0.30;;
35977;SDS011;22056;0.000;0.000;2023-04-01T12:10:05;0.60;;;0.30;;
35977;SDS011;22056;0.000;0.000;2023-04-01T12:12:40;0.93;;;0.50;;
35977;SDS011;22056;0.000;0.000;2023-04-01T12:15:13;0.73;;;0.30;;
35977;SDS011;22056;0.000;0.000;2023-04-01T12:18:24;0.38;;;0.20;;
35977;SDS011;22056;0.000;0.000;2023-04-01T12:26:03;0.30;;;0.30;;
35977;SDS011;22056;0.000;0.000;2023-04-01T12:36:53;0.95;;;0.32;;
35977;SDS011;22056;0.000;0.000;2023-04-01T12:39:44;0.30;;;0.20;;
35977;SDS011;22056;0.000;0.000;2023-04-01T12:42:17;0.20;;;0.20;;
35977;SDS011;22056;0.000;0.000;2023-04-01T12:45:07;0.57;;;0.38;;
35977;SDS011;22056;0.000;0.000;2023-04-01T12:47:45;1.50;;;0.30;;
35977;SDS011;22056;0.000;0.000;2023-04-01T12:55:40;0.30;;;0.30;;
35977;SDS011;22056;0.000;0.000;2023-04-01T13:08:22;0.25;;;0.20;;
35977;SDS011;22056;0.000;0.000;2023-04-01T13:10:57;1.05;;;0.30;;
35977;SDS011;22056;0.000;0.000;2023-04-01T13:16:22;0.28;;;0.20;;
35977;SDS011;22056;0.000;0.000;2023-04-01T13:21:43;0.30;;;0.30;;
35977;SDS011;22056;0.000;0.000;2023-04-01T13:24:58;0.88;;;0.47;;
35977;SDS011;22056;0.000;0.000;2023-04-01T13:29:56;0.63;;;0.30;;
35977;SDS011;22056;0.000;0.000;2023-04-01T13:40:21;0.30;;;0.30;;
35977;SDS011;22056;0.000;0.000;2023-04-01T13:42:43;0.57;;;0.30;;
35977;SDS011;22056;0.000;0.000;2023-04-01T13:45:20;0.85;;;0.30;;
35977;SDS011;22056;0.000;0.000;2023-04-01T13:50:57;1.63;;;0.30;;
35977;SDS011;22056;0.000;0.000;2023-04-01T14:00:59;0.75;;;0.30;;
35977;SDS011;22056;0.000;0.000;2023-04-01T14:03:44;0.30;;;0.22;;
35977;SDS011;22056;0.000;0.000;2023-04-01T14:06:17;0.80;;;0.32;;
35977;SDS011;22056;0.000;0.000;2023-04-01T14:08:54;0.30;;;0.30;;
35977;SDS011;22056;0.000;0.000;2023-04-01T14:11:25;0.40;;;0.30;;
35977;SDS011;22056;0.000;0.000;2023-04-01T14:14:20;0.43;;;0.30;;
35977;SDS011;22056;0.000;0.000;2023-04-01T14:40:19;0.45;;;0.30;;
35977;SDS011;22056;0.000;0.000;2023-04-01T14:50:19;0.55;;;0.30;;
35977;SDS011;22056;0.000;0.000;2023-04-01T14:53:33;0.32;;;0.20;;
35977;SDS011;22056;0.000;0.000;2023-04-01T14:55:34;0.40;;;0.30;;
35977;SDS011;22056;0.000;0.000;2023-04-01T14:58:09;1.20;;;0.30;;
35977;SDS011;22056;0.000;0.000;2023-04-01T15:03:22;0.43;;;0.20;;
35977;SDS011;22056;0.000;0.000;2023-04-01T15:06:15;0.20;;;0.20;;
35977;SDS011;22056;0.000;0.000;2023-04-01T15:09:01;1.02;;;0.30;;
35977;SDS011;22056;0.000;0.000;2023-04-01T15:11:33;0.20;;;0.20;;
35977;SDS011;22056;0.000;0.000;2023-04-01T15:32:32;0.20;;;0.20;;
35977;SDS011;22056;0.000;0.000;2023-04-01T15:37:48;0.20;;;0.20;;
35977;SDS011;22056;0.000;0.000;2023-04-01T15:43:27;0.20;;;0.20;;
35977;SDS011;22056;0.000;0.000;2023-04-01T15:45:42;0.20;;;0.20;;
35977;SDS011;22056;0.000;0.000;2023-04-01T15:59:33;0.22;;;0.20;;
35977;SDS011;22056;0.000;0.000;2023-04-01T16:04:47;0.20;;;0.20;;
35977;SDS011;22056;0.000;0.000;2023-04-01T16:10:16;0.63;;;0.32;;
35977;SDS011;22056;0.000;0.000;2023-04-01T16:12:53;0.40;;;0.35;;
35977;SDS011;22056;0.000;0.000;2023-04-01T16:15:29;0.20;;;0.20;;
35977;SDS011;22056;0.000;0.000;2023-04-01T16:18:25;0.20;;;0.20;;
35977;SDS011;22056;0.000;0.000;2023-04-01T16:21:04;0.68;;;0.20;;
35977;SDS011;22056;0.000;0.000;2023-04-01T16:23:40;0.20;;;0.20;;
35977;SDS011;22056;0.000;0.000;2023-04-01T16:26:20;0.40;;;0.20;;
35977;SDS011;22056;0.000;0.000;2023-04-01T16:34:16;0.20;;;0.20;;
35977;SDS011;22056;0.000;0.000;2023-04-01T16:42:16;0.20;;;0.20;;
35977;SDS011;22056;0.000;0.000;2023-04-01T16:44:50;0.10;;;0.10;;
35977;SDS011;22056;0.000;0.000;2023-04-01T16:47:17;0.38;;;0.20;;
35977;SDS011;22056;0.000;0.000;2023-04-01T16:49:52;0.20;;;0.20;;
35977;SDS011;22056;0.000;0.000;2023-04-01T16:52:31;0.38;;;0.28;;
35977;SDS011;22056;0.000;0.000;2023-04-01T16:54:59;0.20;;;0.20;;
35977;SDS011;22056;0.000;0.000;2023-04-01T17:02:28;0.28;;;0.28;;
35977;SDS011;22056;0.000;0.000;2023-04-01T17:05:06;0.13;;;0.13;;
35977;SDS011;22056;0.000;0.000;2023-04-01T17:12:46;0.20;;;0.20;;
35977;SDS011;22056;0.000;0.000;2023-04-01T17:15:23;0.10;;;0.10;;
35977;SDS011;22056;0.000;0.000;2023-04-01T17:23:24;0.25;;;0.25;;
35977;SDS011;22056;0.000;0.000;2023-04-01T17:36:43;0.17;;;0.17;;
35977;SDS011;22056;0.000;0.000;2023-04-01T17:46:53;0.28;;;0.20;;
35977;SDS011;22056;0.000;0.000;2023-04-01T17:51:51;0.20;;;0.15;;
35977;SDS011;22056;0.000;0.000;2023-04-01T18:21:33;0.20;;;0.20;;
35977;SDS011;22056;0.000;0.000;2023-04-01T18:23:56;0.20;;;0.20;;
35977;SDS011;22056;0.000;0.000;2023-04-01T18:26:43;0.20;;;0.20;;
35977;SDS011;22056;0.000;0.000;2023-04-01T18:29:20;0.30;;;0.20;;
35977;SDS011;22056;0.000;0.000;2023-04-01T18:31:55;0.20;;;0.20;;
35977;SDS011;22056;0.000;0.000;2023-04-01T18:40:00;0.30;;;0.20;;
35977;SDS011;22056;0.000;0.000;2023-04-01T18:50:52;0.20;;;0.20;;
35977;SDS011;22056;0.000;0.000;2023-04-01T18:53:24;0.20;;;0.20;;
35977;SDS011;22056;0.000;0.000;2023-04-01T18:55:54;0.20;;;0.20;;
35977;SDS011;22056;0.000;0.000;2023-04-01T19:06:35;0.25;;;0.25;;
35977;SDS011;22056;0.000;0.000;2023-04-01T19:17:01;0.20;;;0.20;;
35977;SDS011;22056;0.000;0.000;2023-04-01T19:31:28;0.17;;;0.10;;
35977;SDS011;22056;0.000;0.000;2023-04-01T19:38:38;0.20;;;0.20;;
35977;SDS011;22056;0.000;0.000;2023-04-01T19:48:44;0.10;;;0.10;;
35977;SDS011;22056;0.000;0.000;2023-04-01T19:54:01;0.57;;;0.20;;
35977;SDS011;22056;0.000;0.000;2023-04-01T19:56:52;0.22;;;0.22;;
35977;SDS011;22056;0.000;0.000;2023-04-01T19:59:20;0.25;;;0.25;;
35977;SDS011;22056;0.000;0.000;2023-04-01T20:11:58;0.10;;;0.10;;
35977;SDS011;22056;0.000;0.000;2023-04-01T20:19:35;0.10;;;0.10;;
35977;SDS011;22056;0.000;0.000;2023-04-01T20:22:02;0.20;;;0.20;;
35977;SDS011;22056;0.000;0.000;2023-04-01T20:24:43;0.10;;;0.10;;
35977;SDS011;22056;0.000;0.000;2023-04-01T20:32:31;0.17;;;0.17;;
35977;SDS011;22056;0.000;0.000;2023-04-01T20:38:11;0.20;;;0.20;;
35977;SDS011;22056;0.000;0.000;2023-04-01T20:51:06;0.28;;;0.15;;
35977;SDS011;22056;0.000;0.000;2023-04-01T20:53:51;0.10;;;0.10;;
35977;SDS011;22056;0.000;0.000;2023-04-01T20:59:02;0.15;;;0.15;;
35977;SDS011;22056;0.000;0.000;2023-04-01T21:04:34;0.10;;;0.10;;
35977;SDS011;22056;0.000;0.000;2023-04-01T21:17:33;0.10;;;0.10;;
35977;SDS011;22056;0.000;0.000;2023-04-01T21:22:40;0.10;;;0.10;;
35977;SDS011;22056;0.000;0.000;2023-04-01T21:25:22;0.15;;;0.15;;
35977;SDS011;22056;0.000;0.000;2023-04-01T21:46:08;0.10;;;0.10;;
35977;SDS011;22056;0.000;0.000;2023-04-01T22:07:15;0.10;;;0.10;;
35977;SDS011;22056;0.000;0.000;2023-04-01T22:14:38;0.20;;;0.20;;
35977;SDS011;22056;0.000;0.000;2023-04-01T22:17:19;0.15;;;0.15;;
35977;SDS011;22056;0.000;0.000;2023-04-01T22:22:27;0.10;;;0.10;;
35977;SDS011;22056;0.000;0.000;2023-04-01T22:25:07;0.13;;;0.13;;
35977;SDS011;22056;0.000;0.000;2023-04-01T22:32:52;0.10;;;0.10;;
35977;SDS011;22056;0.000;0.000;2023-04-01T22:35:24;0.10;;;0.10;;
35977;SDS011;22056;0.000;0.000;2023-04-01T22:42:59;0.17;;;0.17;;
35977;SDS011;22056;0.000;0.000;2023-04-01T22:48:15;0.13;;;0.10;;
35977;SDS011;22056;0.000;0.000;2023-04-01T22:51:12;0.10;;;0.10;;
35977;SDS011;22056;0.000;0.000;2023-04-01T22:56:21;0.22;;;0.20;;
35977;SDS011;22056;0.000;0.000;2023-04-01T22:58:56;0.10;;;0.10;;
35977;SDS011;22056;0.000;0.000;2023-04-01T23:01:25;0.15;;;0.10;;
35977;SDS011;22056;0.000;0.000;2023-04-01T23:03:53;0.15;;;0.15;;
35977;SDS011;22056;0.000;0.000;2023-04-01T23:06:26;0.10;;;0.10;;
35977;SDS011;22056;0.000;0.000;2023-04-01T23:11:25;0.10;;;0.10;;
35977;SDS011;22056;0.000;0.000;2023-04-01T23:16:43;0.10;;;0.10;;
35977;SDS011;22056;0.000;0.000;2023-04-01T23:19:14;0.10;;;0.10;;
35977;SDS011;22056;0.000;0.000;2023-04-01T23:21:50;0.20;;;0.20;;
35977;SDS011;22056;0.000;0.000;2023-04-01T23:24:22;0.10;;;0.10;;
35977;SDS011;22056;0.000;0.000;2023-04-01T23:26:53;0.28;;;0.20;;
35977;SDS011;22056;0.000;0.000;2023-04-01T23:29:21;0.43;;;0.20;;
35977;SDS011;22056;0.000;0.000;2023-04-01T23:31:49;0.10;;;0.10;;
35977;SDS011;22056;0.000;0.000;2023-04-01T23:34:28;0.15;;;0.10;;
35977;SDS011;22056;0.000;0.000;2023-04-01T23:36:57;0.10;;;0.10;;
35977;SDS011;22056;0.000;0.000;2023-04-01T23:39:29;0.20;;;0.20;;
35977;SDS011;22056;0.000;0.000;2023-04-01T23:41:58;0.10;;;0.10;;
35977;SDS011;22056;0.000;0.000;2023-04-01T23:44:25;0.10;;;0.10;;
35977;SDS011;22056;0.000;0.000;2023-04-01T23:46:51;0.10;;;0.10;;
35977;SDS011;22056;0.000;0.000;2023-04-01T23:49:22;0.20;;;0.20;;
35977;SDS011;22056;0.000;0.000;2023-04-01T23:51:54;0.10;;;0.10;;
35977;SDS011;22056;0.000;0.000;2023-04-01T23:56:57;0.10;;;0.10;;
35977;SDS011;22056;0.000;0.000;2023-04-01T23:59:24;0.10;;;0.10;;
